createdAt,value
2023-04-09T00:01:31.974Z,-20042.03
2023-04-09T00:04:00.292Z,-20039.94
2023-04-09T00:06:28.348Z,-20037.25
2023-04-09T00:08:56.398Z,-20040.50
2023-04-09T00:11:25.768Z,-20040.50
2023-04-09T00:13:54.735Z,-20040.50
2023-04-09T00:16:23.015Z,-20040.06
2023-04-09T00:18:51.753Z,-20039.38
2023-04-09T00:21:20.585Z,-18732.41
2023-04-09T00:23:48.464Z,-5997.31
2023-04-09T00:26:16.281Z,-5670.06
2023-04-09T00:28:45.604Z,-5015.44
2023-04-09T00:31:13.631Z,-4360.94
2023-04-09T00:33:42.104Z,-4033.50
2023-04-09T00:36:10.184Z,-4033.53
2023-04-09T00:38:38.069Z,-4033.53
2023-04-09T00:41:06.372Z,-3706.09
2023-04-09T00:43:34.216Z,-3051.16
2023-04-09T00:46:04.286Z,-2723.66
2023-04-09T00:48:34.380Z,-2723.66
2023-04-09T00:51:02.512Z,-2396.13
2023-04-09T00:53:35.345Z,-2068.56
2023-04-09T00:56:04.069Z,-1085.75
2023-04-09T00:58:32.383Z,-758.00
2023-04-09T01:01:00.443Z,-757.94
2023-04-09T01:03:30.487Z,-1741.09
2023-04-09T01:06:07.197Z,-1413.53
2023-04-09T01:08:42.845Z,224.69
2023-04-09T01:11:20.960Z,880.69
2023-04-09T01:13:55.771Z,2192.13
2023-04-09T01:16:25.090Z,2847.88
2023-04-09T01:19:01.260Z,3503.31
2023-04-09T01:21:33.146Z,4159.81
2023-04-09T01:24:10.868Z,5800.44
2023-04-09T01:26:54.810Z,7113.97
2023-04-09T01:29:26.530Z,8098.72
2023-04-09T01:31:55.329Z,8427.72
2023-04-09T01:34:23.740Z,9083.56
2023-04-09T01:36:55.364Z,9740.47
2023-04-09T01:39:24.016Z,11055.56
2023-04-09T01:41:52.675Z,20142.22
2023-04-09T01:44:21.772Z,21611.03
2023-04-09T01:46:52.433Z,22307.25
2023-04-09T01:49:20.747Z,23979.69
2023-04-09T01:51:48.787Z,24153.88
2023-04-09T01:54:17.556Z,25475.84
2023-04-09T01:56:47.685Z,25678.63
2023-04-09T01:59:15.651Z,26729.38
2023-04-09T02:01:47.474Z,28314.22
2023-04-09T02:04:24.306Z,32483.84
2023-04-09T02:07:00.961Z,36187.84
2023-04-09T02:09:31.646Z,39132.38
2023-04-09T02:12:02.907Z,41893.09
2023-04-09T02:14:33.601Z,45961.78
2023-04-09T02:17:02.294Z,49441.66
2023-04-09T02:19:41.838Z,55390.53
2023-04-09T02:22:10.048Z,58197.78
2023-04-09T02:24:38.177Z,64502.69
2023-04-09T02:27:08.028Z,69423.88
2023-04-09T02:29:36.086Z,75220.13
2023-04-09T02:32:04.482Z,80502.13
2023-04-09T02:34:32.385Z,77125.44
2023-04-09T02:37:01.723Z,77686.09
2023-04-09T02:39:29.700Z,81851.44
2023-04-09T02:41:57.863Z,74849.25
2023-04-09T02:44:25.877Z,79417.84
2023-04-09T02:46:53.674Z,85434.56
2023-04-09T02:49:24.188Z,90048.16
2023-04-09T02:51:52.153Z,93698.22
2023-04-09T02:54:21.563Z,96790.94
2023-04-09T02:56:49.656Z,99447.81
2023-04-09T02:59:19.606Z,101932.66
2023-04-09T03:01:47.486Z,103953.09
2023-04-09T03:04:15.653Z,106065.91
2023-04-09T03:06:43.747Z,109035.00
2023-04-09T03:09:11.766Z,111036.31
2023-04-09T03:11:41.077Z,112979.50
2023-04-09T03:14:11.094Z,114151.22
2023-04-09T03:16:38.934Z,114928.22
2023-04-09T03:19:06.820Z,116073.59
2023-04-09T03:21:34.640Z,114287.75
2023-04-09T03:24:02.704Z,114388.88
2023-04-09T03:26:36.098Z,114812.44
2023-04-09T03:29:07.124Z,117078.50
2023-04-09T03:31:35.221Z,118239.47
2023-04-09T03:34:03.485Z,119356.31
2023-04-09T03:36:31.650Z,121911.84
2023-04-09T03:39:01.676Z,123280.69
2023-04-09T03:41:30.177Z,126180.97
2023-04-09T03:44:00.532Z,128060.16
2023-04-09T03:46:29.900Z,129805.72
2023-04-09T03:48:57.790Z,131172.34
2023-04-09T03:51:25.675Z,131684.56
2023-04-09T03:53:54.718Z,132588.09
2023-04-09T03:56:24.164Z,133875.34
2023-04-09T03:58:52.298Z,135799.00
2023-04-09T04:01:20.375Z,136538.31
2023-04-09T04:03:49.992Z,137438.81
2023-04-09T04:06:17.934Z,138498.13
2023-04-09T04:08:45.768Z,139098.91
2023-04-09T04:11:13.747Z,141333.69
2023-04-09T04:13:41.988Z,142196.00
2023-04-09T04:16:11.986Z,143247.38
2023-04-09T04:18:39.960Z,144709.69
2023-04-09T04:21:13.984Z,146174.06
2023-04-09T04:23:42.097Z,146839.63
2023-04-09T04:26:11.136Z,146946.09
2023-04-09T04:28:39.628Z,147040.81
2023-04-09T04:31:10.645Z,147340.44
2023-04-09T04:33:39.259Z,147575.38
2023-04-09T04:36:09.588Z,147918.06
2023-04-09T04:38:37.627Z,148000.38
2023-04-09T04:41:05.782Z,147778.59
2023-04-09T04:43:33.877Z,147292.00
2023-04-09T04:46:02.996Z,146701.41
2023-04-09T04:48:39.153Z,146031.44
2023-04-09T04:51:14.978Z,145189.56
2023-04-09T04:53:49.797Z,144175.78
2023-04-09T04:56:17.903Z,142788.72
2023-04-09T04:58:47.509Z,141403.22
2023-04-09T05:01:16.432Z,140394.28
2023-04-09T05:03:46.408Z,138926.31
2023-04-09T05:06:16.068Z,136776.50
2023-04-09T05:08:43.921Z,133997.66
2023-04-09T05:11:13.230Z,130857.53
2023-04-09T05:13:42.206Z,127443.56
2023-04-09T05:16:10.093Z,123720.88
2023-04-09T05:18:38.032Z,119188.28
2023-04-09T05:21:07.516Z,114263.81
2023-04-09T05:23:39.861Z,109398.84
2023-04-09T05:26:07.887Z,103780.56
2023-04-09T05:28:35.660Z,97152.44
2023-04-09T05:31:04.894Z,90802.06
2023-04-09T05:33:37.770Z,85467.59
2023-04-09T05:36:07.362Z,80615.84
2023-04-09T05:38:36.854Z,76578.81
2023-04-09T05:41:04.819Z,72366.34
2023-04-09T05:43:33.366Z,69532.53
2023-04-09T05:46:02.912Z,68379.75
2023-04-09T05:48:30.878Z,64556.50
2023-04-09T05:51:00.452Z,61845.09
2023-04-09T05:53:29.370Z,59923.56
2023-04-09T05:55:58.812Z,57367.78
2023-04-09T05:58:27.404Z,52252.97
2023-04-09T06:00:58.987Z,46893.47
2023-04-09T06:03:26.985Z,44052.47
2023-04-09T06:05:54.939Z,40426.31
2023-04-09T06:08:23.173Z,36191.69
2023-04-09T06:10:51.411Z,34436.53
2023-04-09T06:13:21.325Z,32641.97
2023-04-09T06:15:49.842Z,30257.41
2023-04-09T06:18:18.790Z,26877.50
2023-04-09T06:20:46.623Z,25226.28
2023-04-09T06:23:15.757Z,22258.97
2023-04-09T06:25:43.553Z,20606.47
2023-04-09T06:28:12.929Z,18629.94
2023-04-09T06:30:42.208Z,16980.63
2023-04-09T06:33:10.738Z,15992.63
2023-04-09T06:35:38.604Z,15335.47
2023-04-09T06:38:07.081Z,14678.19
2023-04-09T06:40:35.975Z,13034.66
2023-04-09T06:43:07.330Z,12377.56
2023-04-09T06:45:35.435Z,12705.97
2023-04-09T06:48:04.994Z,14020.53
2023-04-09T06:50:33.177Z,13366.72
2023-04-09T06:53:02.442Z,15012.13
2023-04-09T06:55:30.288Z,15015.22
2023-04-09T06:57:58.270Z,16332.69
2023-04-09T07:00:26.401Z,16336.34
2023-04-09T07:02:55.423Z,17326.88
2023-04-09T07:05:25.134Z,18975.22
2023-04-09T07:07:53.278Z,19309.66
2023-04-09T07:10:23.020Z,21291.56
2023-04-09T07:12:50.987Z,25930.50
2023-04-09T07:15:19.054Z,28255.81
2023-04-09T07:17:47.042Z,34225.69
2023-04-09T07:20:14.907Z,35228.66
2023-04-09T07:22:47.721Z,35554.22
2023-04-09T07:25:16.213Z,32555.09
2023-04-09T07:27:44.608Z,27596.41
2023-04-09T07:30:13.144Z,27933.59
2023-04-09T07:32:41.244Z,27269.09
2023-04-09T07:35:11.717Z,28592.91
2023-04-09T07:37:39.934Z,30250.44
2023-04-09T07:40:10.837Z,29246.09
2023-04-09T07:42:40.759Z,26930.38
2023-04-09T07:45:10.750Z,24279.00
2023-04-09T07:47:42.403Z,22297.19
2023-04-09T07:50:11.383Z,21315.91
2023-04-09T07:52:41.657Z,22637.97
2023-04-09T07:55:11.204Z,23646.88
2023-04-09T07:57:39.097Z,27966.44
2023-04-09T08:00:11.748Z,39276.22
2023-04-09T08:02:39.749Z,46613.53
2023-04-09T08:05:09.019Z,49941.75
2023-04-09T08:07:37.539Z,47917.84
2023-04-09T08:10:08.411Z,41237.50
2023-04-09T08:12:39.943Z,40225.94
2023-04-09T08:15:09.781Z,38900.59
2023-04-09T08:17:38.729Z,36914.91
2023-04-09T08:20:08.037Z,38293.28
2023-04-09T08:22:35.939Z,50020.91
2023-04-09T08:25:03.995Z,62444.81
2023-04-09T08:27:33.156Z,74840.03
2023-04-09T08:30:02.536Z,75278.31
2023-04-09T08:32:30.639Z,73289.78
2023-04-09T08:34:58.628Z,78265.84
2023-04-09T08:37:26.792Z,95686.25
2023-04-09T08:39:54.769Z,101991.66
2023-04-09T08:42:24.041Z,110381.94
2023-04-09T08:44:52.324Z,105328.28
2023-04-09T08:47:22.617Z,104291.72
2023-04-09T08:49:50.563Z,91895.84
2023-04-09T08:52:21.980Z,87872.09
2023-04-09T08:54:52.032Z,103458.13
2023-04-09T08:57:21.084Z,101043.75
2023-04-09T08:59:48.996Z,95419.72
2023-04-09T09:02:17.375Z,91979.47
2023-04-09T09:04:48.816Z,96331.44
2023-04-09T09:07:17.760Z,101942.84
2023-04-09T09:09:54.613Z,100848.50
2023-04-09T09:12:39.546Z,97313.84
2023-04-09T09:15:27.400Z,103925.59
2023-04-09T09:18:05.009Z,94724.34
2023-04-09T09:20:35.753Z,88740.00
2023-04-09T09:23:13.394Z,96749.06
2023-04-09T09:25:44.773Z,91968.78
2023-04-09T09:28:14.094Z,94450.22
2023-04-09T09:30:42.092Z,95456.25
2023-04-09T09:33:19.920Z,98256.19
2023-04-09T09:35:52.043Z,88199.28
2023-04-09T09:38:20.065Z,84925.16
2023-04-09T09:40:49.140Z,98006.31
2023-04-09T09:43:17.510Z,98241.66
2023-04-09T09:45:48.895Z,99988.94
2023-04-09T09:48:17.295Z,96196.59
2023-04-09T09:50:50.561Z,91024.03
2023-04-09T09:53:27.313Z,86810.13
2023-04-09T09:56:03.677Z,94367.03
2023-04-09T09:58:39.198Z,86335.69
2023-04-09T10:01:40.312Z,76248.34
2023-04-09T10:04:14.751Z,96975.91
2023-04-09T10:06:48.778Z,101031.69
2023-04-09T10:09:19.239Z,94328.19
2023-04-09T10:11:48.901Z,99311.91
2023-04-09T10:14:20.933Z,97159.91
2023-04-09T10:16:48.957Z,95355.91
2023-04-09T10:19:18.884Z,93687.22
2023-04-09T10:21:53.547Z,98555.25
2023-04-09T10:24:23.725Z,99795.00
2023-04-09T10:26:55.676Z,94125.50
2023-04-09T10:29:29.385Z,91018.97
2023-04-09T10:32:06.307Z,95418.19
2023-04-09T10:34:38.035Z,93878.47
2023-04-09T10:37:08.432Z,83174.19
2023-04-09T10:39:42.493Z,107561.00
2023-04-09T10:42:24.937Z,108466.56
2023-04-09T10:45:08.159Z,153322.19
2023-04-09T10:47:37.743Z,153085.22
2023-04-09T10:50:22.205Z,139299.06
2023-04-09T10:52:54.452Z,-20280.19
2023-04-09T10:55:36.267Z,-20269.03
2023-04-09T10:58:05.546Z,-20268.75
2023-04-09T11:00:38.341Z,-20282.13
2023-04-09T11:03:21.967Z,-20318.28
2023-04-09T11:05:55.105Z,-20327.19
2023-04-09T11:08:25.376Z,53117.31
2023-04-09T11:10:58.371Z,111417.25
2023-04-09T11:13:26.752Z,142178.22
2023-04-09T11:15:56.228Z,151871.66
2023-04-09T11:18:25.729Z,153710.53
2023-04-09T11:20:56.724Z,153749.63
2023-04-09T11:23:26.297Z,153300.03
2023-04-09T11:25:56.531Z,153056.59
2023-04-09T11:28:25.036Z,152987.56
2023-04-09T11:30:53.520Z,133139.47
2023-04-09T11:33:21.668Z,130643.72
2023-04-09T11:35:50.360Z,98411.78
2023-04-09T11:38:20.033Z,67734.63
2023-04-09T11:40:49.530Z,62928.47
2023-04-09T11:43:21.095Z,93550.72
2023-04-09T11:45:54.839Z,106907.16
2023-04-09T11:48:24.934Z,131336.38
2023-04-09T11:50:53.732Z,127115.72
2023-04-09T11:53:23.778Z,128003.19
2023-04-09T11:55:53.638Z,153494.16
2023-04-09T11:58:25.705Z,153341.75
2023-04-09T12:01:01.220Z,153007.13
2023-04-09T12:03:33.722Z,153246.59
2023-04-09T12:06:04.793Z,153160.72
2023-04-09T12:08:35.717Z,153250.50
2023-04-09T12:11:11.378Z,153152.88
2023-04-09T12:13:43.646Z,152996.69
2023-04-09T12:16:12.090Z,152981.06
2023-04-09T12:18:41.173Z,152960.28
2023-04-09T12:21:10.441Z,152892.63
2023-04-09T12:23:38.929Z,152782.09
2023-04-09T12:26:08.245Z,152783.41
2023-04-09T12:28:42.766Z,153027.94
2023-04-09T12:31:12.131Z,153095.63
2023-04-09T12:33:40.636Z,153106.03
2023-04-09T12:36:10.066Z,153462.91
2023-04-09T12:38:38.284Z,153202.34
2023-04-09T12:41:06.413Z,153083.91
2023-04-09T12:43:34.323Z,153022.75
2023-04-09T12:46:03.726Z,153524.09
2023-04-09T12:48:33.057Z,153950.56
2023-04-09T12:51:01.381Z,153687.03
2023-04-09T12:53:31.075Z,153268.75
2023-04-09T12:55:58.929Z,153203.66
2023-04-09T12:58:27.415Z,153362.56
2023-04-09T13:00:57.001Z,153327.41
2023-04-09T13:03:27.519Z,153229.72
2023-04-09T13:05:56.177Z,153244.00
2023-04-09T13:08:24.371Z,153264.84
2023-04-09T13:10:53.500Z,153743.09
2023-04-09T13:13:21.726Z,153989.69
2023-04-09T13:15:50.072Z,154021.00
2023-04-09T13:18:18.925Z,154138.50
2023-04-09T13:20:49.163Z,154088.91
2023-04-09T13:23:17.481Z,154034.09
2023-04-09T13:25:47.877Z,154121.56
2023-04-09T13:28:19.648Z,154202.47
2023-04-09T13:30:49.782Z,153966.19
2023-04-09T13:33:23.586Z,153967.50
2023-04-09T13:36:24.460Z,154130.72
2023-04-09T13:38:53.700Z,153932.28
2023-04-09T13:41:29.792Z,153801.84
2023-04-09T13:43:59.936Z,153988.38
2023-04-09T13:46:28.350Z,154179.00
2023-04-09T13:48:57.332Z,154242.94
2023-04-09T13:51:29.707Z,154567.03
2023-04-09T13:53:58.122Z,154386.66
2023-04-09T13:56:27.541Z,154120.25
2023-04-09T13:58:55.560Z,153826.63
2023-04-09T14:01:24.260Z,153544.94
2023-04-09T14:03:54.628Z,153500.66
2023-04-09T14:06:23.017Z,153422.47
2023-04-09T14:08:52.879Z,153324.81
2023-04-09T14:11:21.475Z,153083.91
2023-04-09T14:13:49.814Z,153149.00
2023-04-09T14:16:18.015Z,153392.53
2023-04-09T14:18:46.371Z,153229.72
2023-04-09T14:21:14.335Z,153072.22
2023-04-09T14:23:43.365Z,153031.84
2023-04-09T14:26:13.376Z,152969.34
2023-04-09T14:28:41.597Z,152984.97
2023-04-09T14:31:10.151Z,152986.28
2023-04-09T14:33:38.389Z,153357.34
2023-04-09T14:36:07.149Z,153518.91
2023-04-09T14:38:35.789Z,153723.59
2023-04-09T14:41:05.050Z,153817.50
2023-04-09T14:43:47.326Z,153797.91
2023-04-09T14:46:15.361Z,153534.53
2023-04-09T14:48:43.302Z,153379.50
2023-04-09T14:51:12.182Z,153273.97
2023-04-09T14:53:40.291Z,153171.13
2023-04-09T14:56:08.764Z,153051.38
2023-04-09T14:58:38.351Z,152975.88
2023-04-09T15:01:07.059Z,152988.88
2023-04-09T15:03:36.274Z,152979.75
2023-04-09T15:06:04.661Z,153215.38
2023-04-09T15:08:32.943Z,153236.22
2023-04-09T15:11:03.079Z,153391.22
2023-04-09T15:13:32.014Z,153189.31
2023-04-09T15:16:01.403Z,153343.06
2023-04-09T15:18:29.350Z,153309.16
2023-04-09T15:20:57.238Z,153272.66
2023-04-09T15:23:25.235Z,153178.94
2023-04-09T15:25:53.209Z,153125.59
2023-04-09T15:28:21.297Z,153215.38
2023-04-09T15:30:50.699Z,153089.13
2023-04-09T15:33:20.405Z,153003.22
2023-04-09T15:35:49.669Z,153026.66
2023-04-09T15:38:17.847Z,153020.13
2023-04-09T15:40:45.842Z,153000.59
2023-04-09T15:43:13.871Z,153078.69
2023-04-09T15:45:42.185Z,153262.25
2023-04-09T15:48:10.195Z,153602.34
2023-04-09T15:50:51.199Z,153741.81
2023-04-09T15:53:26.379Z,153724.88
2023-04-09T15:55:54.411Z,153681.88
2023-04-09T15:58:24.760Z,153520.16
2023-04-09T16:00:54.119Z,153507.19
2023-04-09T16:03:23.468Z,153636.22
2023-04-09T16:05:52.710Z,153659.69
2023-04-09T16:08:21.728Z,153439.41
2023-04-09T16:10:50.591Z,153494.16
2023-04-09T16:13:19.895Z,153543.66
2023-04-09T16:15:49.374Z,153749.63
2023-04-09T16:18:17.299Z,153767.91
2023-04-09T16:20:45.639Z,153809.66
2023-04-09T16:23:15.450Z,153690.97
2023-04-09T16:25:43.341Z,153488.94
2023-04-09T16:28:11.206Z,153409.44
2023-04-09T16:30:39.341Z,153178.94
2023-04-09T16:33:08.767Z,153386.03
2023-04-09T16:35:39.321Z,153501.97
2023-04-09T16:38:08.042Z,153421.16
2023-04-09T16:40:37.500Z,153358.63
2023-04-09T16:43:05.766Z,153359.94
2023-04-09T16:45:33.603Z,153374.28
2023-04-09T16:48:01.520Z,153408.13
2023-04-09T16:50:29.539Z,153483.72
2023-04-09T16:53:00.095Z,153608.88
2023-04-09T16:55:28.444Z,153574.94
2023-04-09T16:57:58.874Z,153501.97
2023-04-09T17:00:27.446Z,153618.00
2023-04-09T17:02:57.755Z,153677.97
2023-04-09T17:05:27.052Z,153365.16
2023-04-09T17:07:55.610Z,153319.59
2023-04-09T17:10:23.577Z,153283.09
2023-04-09T17:12:51.595Z,153298.72
2023-04-09T17:15:22.541Z,153139.88
2023-04-09T17:17:53.100Z,153081.28
2023-04-09T17:20:22.761Z,153009.72
2023-04-09T17:22:51.440Z,152981.06
2023-04-09T17:25:20.459Z,152986.28
2023-04-09T17:27:48.517Z,152934.25
2023-04-09T17:30:17.581Z,152814.59
2023-04-09T17:32:47.901Z,152836.72
2023-04-09T17:35:16.008Z,152721.00
2023-04-09T17:37:44.049Z,152653.34
2023-04-09T17:40:15.066Z,152601.38
2023-04-09T17:42:43.222Z,152558.50
2023-04-09T17:45:11.930Z,152500.03
2023-04-09T17:47:41.133Z,152419.50
2023-04-09T17:50:12.505Z,152348.06
2023-04-09T17:52:41.509Z,152284.44
2023-04-09T17:55:17.542Z,152263.63
2023-04-09T17:57:47.543Z,152242.84
2023-04-09T18:00:17.707Z,152235.09
2023-04-09T18:02:47.347Z,152167.59
2023-04-09T18:05:26.733Z,152126.09
2023-04-09T18:08:02.439Z,152041.75
2023-04-09T18:10:30.863Z,151962.59
2023-04-09T18:12:59.851Z,151939.25
2023-04-09T18:15:29.118Z,151913.28
2023-04-09T18:18:00.488Z,151879.59
2023-04-09T18:20:34.976Z,151900.34
2023-04-09T18:23:05.454Z,151843.31
2023-04-09T18:25:33.661Z,151819.94
2023-04-09T18:28:01.521Z,151804.38
2023-04-09T18:30:29.643Z,151764.22
2023-04-09T18:32:57.984Z,151733.13
2023-04-09T18:35:25.973Z,151725.34
2023-04-09T18:38:05.523Z,151698.13
2023-04-09T18:40:33.612Z,151724.06
2023-04-09T18:43:04.038Z,151678.72
2023-04-09T18:45:37.061Z,151656.66
2023-04-09T18:48:07.388Z,151624.25
2023-04-09T18:50:35.505Z,151532.25
2023-04-09T18:53:06.227Z,151546.50
2023-04-09T18:55:37.965Z,151514.16
2023-04-09T18:58:12.973Z,151512.84
2023-04-09T19:00:41.892Z,151472.69
2023-04-09T19:03:10.485Z,151506.38
2023-04-09T19:05:40.781Z,151410.56
2023-04-09T19:08:11.372Z,151424.78
2023-04-09T19:10:42.552Z,151384.66
2023-04-09T19:13:10.623Z,151345.84
2023-04-09T19:15:39.156Z,151322.53
2023-04-09T19:18:08.083Z,151273.34
2023-04-09T19:20:37.631Z,151332.88
2023-04-09T19:23:06.652Z,151323.81
2023-04-09T19:25:36.220Z,151309.56
2023-04-09T19:28:04.240Z,151382.06
2023-04-09T19:30:32.274Z,151301.84
2023-04-09T19:33:00.355Z,151400.22
2023-04-09T19:35:28.536Z,151417.00
2023-04-09T19:37:56.802Z,151366.53
2023-04-09T19:40:24.839Z,151365.22
2023-04-09T19:42:54.248Z,151376.88
2023-04-09T19:45:22.615Z,151335.47
2023-04-09T19:47:50.658Z,151347.16
2023-04-09T19:50:18.782Z,151358.75
2023-04-09T19:52:47.299Z,151407.97
2023-04-09T19:55:15.318Z,151325.13
2023-04-09T19:57:44.255Z,151330.31
2023-04-09T20:00:16.042Z,151340.66
2023-04-09T20:02:44.213Z,151297.97
2023-04-09T20:05:14.366Z,151235.84
2023-04-09T20:07:44.417Z,151242.31
2023-04-09T20:10:14.724Z,151260.41
2023-04-09T20:12:42.974Z,151231.97
2023-04-09T20:15:13.044Z,151225.50
2023-04-09T20:17:41.782Z,151190.56
2023-04-09T20:20:11.797Z,151211.25
2023-04-09T20:22:43.244Z,151163.38
2023-04-09T20:25:13.414Z,151164.69
2023-04-09T20:27:41.367Z,151167.28
2023-04-09T20:30:10.470Z,151190.56
2023-04-09T20:32:40.164Z,151198.28
2023-04-09T20:35:11.033Z,151216.41
2023-04-09T20:37:39.764Z,151251.34
2023-04-09T20:40:10.174Z,151228.09
2023-04-09T20:42:39.664Z,151306.97
2023-04-09T20:45:08.836Z,151230.66
2023-04-09T20:47:36.878Z,151187.97
2023-04-09T20:50:07.132Z,151158.16
2023-04-09T20:52:34.987Z,151121.97
2023-04-09T20:55:02.979Z,151097.38
2023-04-09T20:57:31.309Z,151068.94
2023-04-09T21:00:01.703Z,151045.63
2023-04-09T21:02:31.016Z,151090.91
2023-04-09T21:05:05.530Z,151053.41
2023-04-09T21:07:44.711Z,151009.44
2023-04-09T21:10:13.235Z,151063.75
2023-04-09T21:12:43.394Z,151092.19
2023-04-09T21:15:12.380Z,151101.25
2023-04-09T21:17:40.544Z,151119.38
2023-04-09T21:20:09.690Z,151145.22
2023-04-09T21:22:37.716Z,151115.47
2023-04-09T21:25:09.958Z,151110.31
2023-04-09T21:27:38.496Z,151024.97
2023-04-09T21:30:11.096Z,151044.34
2023-04-09T21:32:39.079Z,151092.19
2023-04-09T21:35:07.650Z,151094.78
2023-04-09T21:37:37.515Z,151070.22
2023-04-09T21:40:07.301Z,151039.16
2023-04-09T21:42:36.512Z,151019.81
2023-04-09T21:45:05.044Z,151063.75
2023-04-09T21:47:33.150Z,151027.53
2023-04-09T21:50:02.421Z,151032.69
2023-04-09T21:52:30.281Z,150970.69
2023-04-09T21:54:58.222Z,150993.94
2023-04-09T21:57:26.288Z,150975.81
2023-04-09T22:00:02.336Z,150920.22
2023-04-09T22:02:39.786Z,150887.94
2023-04-09T22:05:09.374Z,150960.34
2023-04-09T22:07:43.368Z,150957.75
2023-04-09T22:10:19.039Z,150847.91
2023-04-09T22:12:50.412Z,150838.84
2023-04-09T22:15:40.033Z,150849.19
2023-04-09T22:18:14.366Z,150916.34
2023-04-09T22:20:48.716Z,150836.25
2023-04-09T22:23:26.169Z,150851.78
2023-04-09T22:26:00.806Z,150816.84
2023-04-09T22:28:29.695Z,150818.16
2023-04-09T22:31:01.543Z,150784.56
2023-04-09T22:33:31.588Z,150793.63
2023-04-09T22:35:59.728Z,150787.16
2023-04-09T22:38:27.753Z,150880.19
2023-04-09T22:40:56.057Z,150891.81
2023-04-09T22:43:24.306Z,150880.19
2023-04-09T22:45:53.155Z,150904.75
2023-04-09T22:48:23.149Z,150911.22
2023-04-09T22:50:51.515Z,150877.59
2023-04-09T22:53:20.790Z,150819.44
2023-04-09T22:55:51.110Z,150743.25
2023-04-09T22:58:19.865Z,150756.13
2023-04-09T23:00:48.445Z,150779.41
2023-04-09T23:03:17.008Z,150763.88
2023-04-09T23:05:47.143Z,150763.88
2023-04-09T23:08:15.043Z,150818.16
2023-04-09T23:10:42.862Z,150810.38
2023-04-09T23:13:13.839Z,150796.22
2023-04-09T23:15:41.846Z,150807.81
2023-04-09T23:18:10.152Z,150873.72
2023-04-09T23:20:38.113Z,150894.41
2023-04-09T23:23:08.968Z,150894.41
2023-04-09T23:25:38.690Z,150846.59
2023-04-09T23:28:06.570Z,150880.19
2023-04-09T23:30:34.725Z,150898.28
2023-04-09T23:33:03.555Z,150846.59
2023-04-09T23:35:31.664Z,150831.09
2023-04-09T23:38:02.011Z,150844.00
2023-04-09T23:40:34.009Z,150842.72
2023-04-09T23:43:04.406Z,150859.53
2023-04-09T23:45:32.258Z,150898.28
2023-04-09T23:48:00.516Z,150882.78
2023-04-09T23:50:29.040Z,150867.25
2023-04-09T23:53:01.021Z,150846.59
2023-04-09T23:55:29.069Z,150865.94
2023-04-09T23:57:58.279Z,150828.50
